createdAt,value
2022-10-16T00:02:11.260Z,99.90
2022-10-16T00:04:38.084Z,99.90
2022-10-16T00:07:04.828Z,99.90
2022-10-16T00:09:31.635Z,99.90
2022-10-16T00:11:58.419Z,99.90
2022-10-16T00:14:25.223Z,99.90
2022-10-16T00:16:51.984Z,99.90
2022-10-16T00:19:18.780Z,99.90
2022-10-16T00:21:45.584Z,99.90
2022-10-16T00:24:12.460Z,99.90
2022-10-16T00:26:40.414Z,99.90
2022-10-16T00:29:07.710Z,99.90
2022-10-16T00:31:34.582Z,99.90
2022-10-16T00:34:01.627Z,99.90
2022-10-16T00:36:28.806Z,99.90
2022-10-16T00:38:58.565Z,99.90
2022-10-16T00:41:27.940Z,99.90
2022-10-16T00:43:59.959Z,99.90
2022-10-16T00:46:26.625Z,99.90
2022-10-16T00:49:02.414Z,99.90
2022-10-16T00:51:55.867Z,99.90
2022-10-16T00:54:25.757Z,99.90
2022-10-16T00:56:54.773Z,99.90
2022-10-16T00:59:27.351Z,99.90
2022-10-16T01:01:55.368Z,99.90
2022-10-16T01:04:23.141Z,99.90
2022-10-16T01:07:04.982Z,99.90
2022-10-16T01:09:52.034Z,99.90
2022-10-16T01:12:36.572Z,99.90
2022-10-16T01:15:28.135Z,99.90
2022-10-16T01:18:19.887Z,99.90
2022-10-16T01:20:59.092Z,99.90
2022-10-16T01:23:26.089Z,99.90
2022-10-16T01:26:14.862Z,99.90
2022-10-16T01:28:57.252Z,99.90
2022-10-16T01:31:28.086Z,99.90
2022-10-16T01:34:07.432Z,99.90
2022-10-16T01:36:42.129Z,99.90
2022-10-16T01:39:12.311Z,99.90
2022-10-16T01:41:48.067Z,99.90
2022-10-16T01:44:25.726Z,99.90
2022-10-16T01:46:55.089Z,99.90
2022-10-16T01:49:25.019Z,99.90
2022-10-16T01:51:55.939Z,99.90
2022-10-16T01:54:26.767Z,99.90
2022-10-16T01:56:55.200Z,99.90
2022-10-16T01:59:25.147Z,99.90
2022-10-16T02:01:55.783Z,99.90
2022-10-16T02:04:39.359Z,99.90
2022-10-16T02:07:07.880Z,99.90
2022-10-16T02:09:36.059Z,99.90
2022-10-16T02:12:10.980Z,99.90
2022-10-16T02:14:40.063Z,99.90
2022-10-16T02:17:18.739Z,99.90
2022-10-16T02:19:47.173Z,99.90
2022-10-16T02:22:29.149Z,99.90
2022-10-16T02:25:18.548Z,99.90
2022-10-16T02:28:18.362Z,99.90
2022-10-16T02:30:51.599Z,99.90
2022-10-16T02:33:20.966Z,99.90
2022-10-16T02:35:49.847Z,99.90
2022-10-16T02:38:18.263Z,99.90
2022-10-16T02:40:45.681Z,99.90
2022-10-16T02:43:13.276Z,99.90
2022-10-16T02:45:40.126Z,99.90
2022-10-16T02:48:07.415Z,99.90
2022-10-16T02:50:34.490Z,99.90
2022-10-16T02:53:01.867Z,99.90
2022-10-16T02:55:28.927Z,99.90
2022-10-16T02:57:56.183Z,99.90
2022-10-16T03:00:23.349Z,99.90
2022-10-16T03:02:50.244Z,99.90
2022-10-16T03:05:17.347Z,99.90
2022-10-16T03:07:44.217Z,99.90
2022-10-16T03:10:11.033Z,99.90
2022-10-16T03:12:37.830Z,99.90
2022-10-16T03:15:05.122Z,99.90
2022-10-16T03:17:33.488Z,99.90
2022-10-16T03:20:00.314Z,99.90
2022-10-16T03:22:27.182Z,99.90
2022-10-16T03:24:54.015Z,99.90
2022-10-16T03:27:20.828Z,99.90
2022-10-16T03:29:47.821Z,99.90
2022-10-16T03:32:14.625Z,99.90
2022-10-16T03:34:41.417Z,99.90
2022-10-16T03:37:08.303Z,99.90
2022-10-16T03:39:35.104Z,99.90
2022-10-16T03:42:01.993Z,99.90
2022-10-16T03:44:28.833Z,99.90
2022-10-16T03:46:55.608Z,99.90
2022-10-16T03:49:22.416Z,99.90
2022-10-16T03:51:49.214Z,99.90
2022-10-16T03:54:16.064Z,99.90
2022-10-16T03:56:42.886Z,99.90
2022-10-16T03:59:09.783Z,99.90
2022-10-16T04:01:36.589Z,99.90
2022-10-16T04:04:03.423Z,99.90
2022-10-16T04:06:30.319Z,99.90
2022-10-16T04:08:57.370Z,99.90
2022-10-16T04:11:24.206Z,99.90
2022-10-16T04:13:51.010Z,99.90
2022-10-16T04:16:17.796Z,99.90
2022-10-16T04:18:44.643Z,99.90
2022-10-16T04:21:11.457Z,99.90
2022-10-16T04:23:38.274Z,99.90
2022-10-16T04:26:05.104Z,99.90
2022-10-16T04:28:32.072Z,99.90
2022-10-16T04:30:58.907Z,99.90
2022-10-16T04:33:25.718Z,99.90
2022-10-16T04:36:02.761Z,99.90
2022-10-16T04:38:29.652Z,99.90
2022-10-16T04:40:56.589Z,99.90
2022-10-16T04:43:23.706Z,99.90
2022-10-16T04:45:52.025Z,99.90
2022-10-16T04:50:55.131Z,99.90
2022-10-16T04:53:22.409Z,99.90
2022-10-16T04:55:49.338Z,99.90
2022-10-16T04:58:16.259Z,99.90
2022-10-16T05:00:43.153Z,99.90
2022-10-16T05:03:10.264Z,99.90
2022-10-16T05:05:37.884Z,99.90
2022-10-16T05:08:05.096Z,99.90
2022-10-16T05:10:32.038Z,99.90
2022-10-16T05:12:58.962Z,99.90
2022-10-16T05:15:26.408Z,99.90
2022-10-16T05:17:56.771Z,99.90
2022-10-16T05:20:24.265Z,99.90
2022-10-16T05:22:51.302Z,99.90
2022-10-16T05:25:18.124Z,99.90
2022-10-16T05:27:47.765Z,99.90
2022-10-16T05:30:14.568Z,99.90
2022-10-16T05:32:41.426Z,99.90
2022-10-16T05:35:11.713Z,99.90
2022-10-16T05:37:39.605Z,99.90
2022-10-16T05:40:06.987Z,99.90
2022-10-16T05:42:33.814Z,99.90
2022-10-16T05:45:00.749Z,99.90
2022-10-16T05:47:28.183Z,99.90
2022-10-16T05:49:55.252Z,99.90
2022-10-16T05:52:21.983Z,99.90
2022-10-16T05:54:48.763Z,99.90
2022-10-16T05:57:15.510Z,99.90
2022-10-16T05:59:42.321Z,99.90
2022-10-16T06:02:13.884Z,99.90
2022-10-16T06:04:40.671Z,99.90
2022-10-16T06:07:07.399Z,99.90
2022-10-16T06:09:39.854Z,99.90
2022-10-16T06:12:06.710Z,99.90
2022-10-16T06:14:33.906Z,99.90
2022-10-16T06:17:00.665Z,99.90
2022-10-16T06:19:30.425Z,99.90
2022-10-16T06:22:00.249Z,99.90
2022-10-16T06:24:27.156Z,99.90
2022-10-16T06:26:53.892Z,99.90
2022-10-16T06:29:20.817Z,99.90
2022-10-16T06:31:47.683Z,99.90
2022-10-16T06:34:14.545Z,99.90
2022-10-16T06:36:42.250Z,99.90
2022-10-16T06:39:09.091Z,99.90
2022-10-16T06:41:35.978Z,99.90
2022-10-16T06:44:05.977Z,99.90
2022-10-16T06:46:32.937Z,99.90
2022-10-16T06:48:59.805Z,99.90
2022-10-16T06:51:26.822Z,99.90
2022-10-16T06:54:05.011Z,99.90
2022-10-16T06:56:33.442Z,99.90
2022-10-16T06:59:00.761Z,99.90
2022-10-16T07:01:30.955Z,99.90
2022-10-16T07:04:01.327Z,99.90
2022-10-16T07:06:31.423Z,99.90
2022-10-16T07:08:58.202Z,99.90
2022-10-16T07:11:25.540Z,99.90
2022-10-16T07:13:56.099Z,99.90
2022-10-16T07:16:28.196Z,99.90
2022-10-16T07:19:00.764Z,99.90
2022-10-16T07:21:36.731Z,99.90
2022-10-16T07:24:07.228Z,99.90
2022-10-16T07:26:36.259Z,99.90
2022-10-16T07:29:04.410Z,99.90
2022-10-16T07:31:31.306Z,99.90
2022-10-16T07:34:00.444Z,99.90
2022-10-16T07:36:27.207Z,99.90
2022-10-16T07:38:57.061Z,99.90
2022-10-16T07:41:26.570Z,99.90
2022-10-16T07:43:54.855Z,99.90
2022-10-16T07:46:23.436Z,99.90
2022-10-16T07:48:50.698Z,99.90
2022-10-16T07:51:20.532Z,99.90
2022-10-16T07:53:48.119Z,99.90
2022-10-16T07:56:16.091Z,99.90
2022-10-16T07:58:43.562Z,99.90
2022-10-16T08:01:15.562Z,99.90
2022-10-16T08:03:47.506Z,99.90
2022-10-16T08:06:14.265Z,99.90
2022-10-16T08:08:41.177Z,99.90
2022-10-16T08:11:08.986Z,99.90
2022-10-16T08:13:36.034Z,99.90
2022-10-16T08:16:09.702Z,99.90
2022-10-16T08:18:38.554Z,99.90
2022-10-16T08:21:06.580Z,99.90
2022-10-16T08:23:34.170Z,99.90
2022-10-16T08:26:06.584Z,99.90
2022-10-16T08:28:33.952Z,99.90
2022-10-16T08:31:12.042Z,99.90
2022-10-16T08:33:40.150Z,99.90
2022-10-16T08:36:07.376Z,99.90
2022-10-16T08:38:34.953Z,99.90
2022-10-16T08:41:20.487Z,99.90
2022-10-16T08:44:11.033Z,99.90
2022-10-16T08:47:01.965Z,99.90
2022-10-16T08:49:28.916Z,99.90
2022-10-16T08:51:58.172Z,99.90
2022-10-16T08:54:34.662Z,99.90
2022-10-16T08:57:21.483Z,99.90
2022-10-16T08:59:50.228Z,99.90
2022-10-16T09:02:38.199Z,99.90
2022-10-16T09:05:45.550Z,99.90
2022-10-16T09:08:23.619Z,99.90
2022-10-16T09:11:19.988Z,99.90
2022-10-16T09:14:08.522Z,99.90
2022-10-16T09:16:42.904Z,99.90
2022-10-16T09:19:28.374Z,99.90
2022-10-16T09:21:56.400Z,99.90
2022-10-16T09:24:27.179Z,99.90
2022-10-16T09:26:56.072Z,99.90
2022-10-16T09:29:26.298Z,99.90
2022-10-16T09:31:56.224Z,99.90
2022-10-16T09:34:31.333Z,99.90
2022-10-16T09:37:00.618Z,99.90
2022-10-16T09:39:27.420Z,99.90
2022-10-16T09:41:56.132Z,99.90
2022-10-16T09:44:28.961Z,99.90
2022-10-16T09:47:21.454Z,99.90
2022-10-16T09:50:22.132Z,99.90
2022-10-16T09:52:48.987Z,99.90
2022-10-16T09:55:19.818Z,99.90
2022-10-16T09:57:52.706Z,99.90
2022-10-16T10:00:20.622Z,99.90
2022-10-16T10:02:47.798Z,99.90
2022-10-16T10:05:29.494Z,99.90
2022-10-16T10:08:06.059Z,99.90
2022-10-16T10:10:43.648Z,99.90
2022-10-16T10:13:22.976Z,99.90
2022-10-16T10:15:50.039Z,99.90
2022-10-16T10:18:20.971Z,99.90
2022-10-16T10:20:59.195Z,99.90
2022-10-16T10:23:28.663Z,99.90
2022-10-16T10:25:59.134Z,99.90
2022-10-16T10:28:31.745Z,99.90
2022-10-16T10:31:13.878Z,99.90
2022-10-16T10:33:50.162Z,99.90
2022-10-16T10:36:39.497Z,99.90
2022-10-16T10:39:18.863Z,99.90
2022-10-16T10:42:03.257Z,99.90
2022-10-16T10:45:01.066Z,99.90
2022-10-16T10:50:17.493Z,99.90
2022-10-16T10:53:22.004Z,99.90
2022-10-16T10:55:51.559Z,99.90
2022-10-16T10:58:46.765Z,99.90
2022-10-16T11:01:16.713Z,99.90
2022-10-16T11:04:20.131Z,99.90
2022-10-16T11:07:00.339Z,99.90
2022-10-16T11:09:37.838Z,99.90
2022-10-16T11:12:27.266Z,99.90
2022-10-16T11:15:06.084Z,99.90
2022-10-16T11:17:34.901Z,99.90
2022-10-16T11:20:22.905Z,99.90
2022-10-16T11:23:01.128Z,99.90
2022-10-16T11:25:33.130Z,99.90
2022-10-16T11:28:18.065Z,99.90
2022-10-16T11:30:53.044Z,99.90
2022-10-16T11:33:19.830Z,99.90
2022-10-16T11:36:14.611Z,99.90
2022-10-16T11:38:48.988Z,99.90
2022-10-16T11:41:23.514Z,99.90
2022-10-16T11:44:13.533Z,99.90
2022-10-16T11:46:58.896Z,99.90
2022-10-16T11:49:35.156Z,99.90
2022-10-16T11:52:40.111Z,99.90
2022-10-16T11:55:18.988Z,99.90
2022-10-16T11:57:50.931Z,99.90
2022-10-16T12:00:30.103Z,99.90
2022-10-16T12:03:04.623Z,99.90
2022-10-16T12:06:08.994Z,99.90
2022-10-16T12:08:36.687Z,99.90
2022-10-16T12:11:24.855Z,99.90
2022-10-16T12:13:52.141Z,99.90
2022-10-16T12:16:18.897Z,99.90
2022-10-16T12:18:47.474Z,99.90
2022-10-16T12:21:17.017Z,99.60
2022-10-16T12:23:59.163Z,99.90
2022-10-16T12:26:40.398Z,99.90
2022-10-16T12:29:13.375Z,97.90
2022-10-16T12:31:54.660Z,97.60
2022-10-16T12:34:27.918Z,99.10
2022-10-16T12:36:56.269Z,98.00
2022-10-16T12:39:26.149Z,97.50
2022-10-16T12:42:20.266Z,97.20
2022-10-16T12:44:47.174Z,97.30
2022-10-16T12:47:25.326Z,96.50
2022-10-16T12:49:56.240Z,96.40
2022-10-16T12:52:37.989Z,97.50
2022-10-16T12:55:13.215Z,95.50
2022-10-16T12:57:54.063Z,97.50
2022-10-16T13:00:45.483Z,96.40
2022-10-16T13:03:39.645Z,96.40
2022-10-16T13:06:13.283Z,95.50
2022-10-16T13:09:08.031Z,95.40
2022-10-16T13:11:54.457Z,95.60
2022-10-16T13:14:34.961Z,95.70
2022-10-16T13:17:40.676Z,94.70
2022-10-16T13:20:27.999Z,94.40
2022-10-16T13:23:26.386Z,94.40
2022-10-16T13:26:04.382Z,94.60
2022-10-16T13:28:35.709Z,94.40
2022-10-16T13:31:08.928Z,95.10
2022-10-16T13:33:49.595Z,95.00
2022-10-16T13:36:44.598Z,94.60
2022-10-16T13:39:29.362Z,93.80
2022-10-16T13:42:14.948Z,92.80
2022-10-16T13:44:54.179Z,93.90
2022-10-16T13:47:30.275Z,94.40
2022-10-16T13:50:17.562Z,93.10
2022-10-16T13:52:49.261Z,94.10
2022-10-16T13:55:25.583Z,94.30
2022-10-16T13:57:52.928Z,91.90
2022-10-16T14:00:33.869Z,94.40
2022-10-16T14:03:14.681Z,93.80
2022-10-16T14:06:06.924Z,94.30
2022-10-16T14:08:37.148Z,96.20
2022-10-16T14:11:06.550Z,96.40
2022-10-16T14:13:41.381Z,95.50
2022-10-16T14:16:18.259Z,95.10
2022-10-16T14:21:21.162Z,95.00
2022-10-16T14:23:51.486Z,93.30
2022-10-16T14:26:22.427Z,95.50
2022-10-16T14:29:02.378Z,96.90
2022-10-16T14:31:34.581Z,98.40
2022-10-16T14:34:01.586Z,97.70
2022-10-16T14:36:30.243Z,97.40
2022-10-16T14:39:00.124Z,97.60
2022-10-16T14:41:27.290Z,98.10
2022-10-16T14:44:02.239Z,99.10
2022-10-16T14:46:39.806Z,99.90
2022-10-16T14:49:19.241Z,99.90
2022-10-16T14:51:46.973Z,99.90
2022-10-16T14:54:18.908Z,99.90
2022-10-16T14:56:55.479Z,99.90
2022-10-16T14:59:37.604Z,99.60
2022-10-16T15:02:20.573Z,98.50
2022-10-16T15:04:47.876Z,98.70
2022-10-16T15:07:14.709Z,99.80
2022-10-16T15:09:46.435Z,99.90
2022-10-16T15:12:16.120Z,99.90
2022-10-16T15:14:42.922Z,99.90
2022-10-16T15:17:11.980Z,99.90
2022-10-16T15:19:38.942Z,99.90
2022-10-16T15:22:05.733Z,99.90
2022-10-16T15:24:32.615Z,99.90
2022-10-16T15:26:59.436Z,99.90
2022-10-16T15:29:26.273Z,99.90
2022-10-16T15:31:53.075Z,99.90
2022-10-16T15:34:20.728Z,99.90
2022-10-16T15:36:47.714Z,99.90
2022-10-16T15:39:17.376Z,99.90
2022-10-16T15:41:45.806Z,99.90
2022-10-16T15:44:12.640Z,99.90
2022-10-16T15:46:41.984Z,99.90
2022-10-16T15:49:10.556Z,99.90
2022-10-16T15:51:40.828Z,99.90
2022-10-16T15:54:08.359Z,99.90
2022-10-16T15:56:38.180Z,99.90
2022-10-16T15:59:06.309Z,99.90
2022-10-16T16:01:35.909Z,99.90
2022-10-16T16:04:15.454Z,99.90
2022-10-16T16:06:47.109Z,99.90
2022-10-16T16:09:14.953Z,99.90
2022-10-16T16:11:42.806Z,99.90
2022-10-16T16:14:14.508Z,99.90
2022-10-16T16:16:42.364Z,99.90
2022-10-16T16:19:11.867Z,99.90
2022-10-16T16:21:39.456Z,99.90
2022-10-16T16:24:09.655Z,99.90
2022-10-16T16:26:40.451Z,99.90
2022-10-16T16:29:07.603Z,99.90
2022-10-16T16:31:35.828Z,99.90
2022-10-16T16:34:02.774Z,99.90
2022-10-16T16:36:29.706Z,99.90
2022-10-16T16:38:58.129Z,99.90
2022-10-16T16:41:28.419Z,99.90
2022-10-16T16:43:56.324Z,99.90
2022-10-16T16:46:23.544Z,99.90
2022-10-16T16:51:24.391Z,99.90
2022-10-16T16:53:53.065Z,99.90
2022-10-16T16:56:20.560Z,99.90
2022-10-16T16:58:49.185Z,99.90
2022-10-16T17:01:19.728Z,99.90
2022-10-16T17:03:50.630Z,99.90
2022-10-16T17:06:20.619Z,99.90
2022-10-16T17:08:48.680Z,99.90
2022-10-16T17:11:18.461Z,99.90
2022-10-16T17:13:45.332Z,99.90
2022-10-16T17:16:12.519Z,99.90
2022-10-16T17:18:39.607Z,99.90
2022-10-16T17:21:08.680Z,99.90
2022-10-16T17:23:36.690Z,99.90
2022-10-16T17:26:08.664Z,99.90
2022-10-16T17:28:35.852Z,99.90
2022-10-16T17:31:16.898Z,99.90
2022-10-16T17:33:44.542Z,99.90
2022-10-16T17:36:14.578Z,99.90
2022-10-16T17:38:42.209Z,99.90
2022-10-16T17:41:24.443Z,99.90
2022-10-16T17:43:52.295Z,99.90
2022-10-16T17:46:22.073Z,99.90
2022-10-16T17:48:51.119Z,99.90
2022-10-16T17:51:20.116Z,99.90
2022-10-16T17:53:55.805Z,99.90
2022-10-16T17:56:25.345Z,99.90
2022-10-16T17:58:54.478Z,99.90
2022-10-16T18:01:27.231Z,99.90
2022-10-16T18:04:00.100Z,99.90
2022-10-16T18:06:27.526Z,99.90
2022-10-16T18:08:55.389Z,99.90
2022-10-16T18:11:22.819Z,99.90
2022-10-16T18:13:53.388Z,99.90
2022-10-16T18:16:20.963Z,99.90
2022-10-16T18:18:48.322Z,99.90
2022-10-16T18:21:17.826Z,99.90
2022-10-16T18:23:50.807Z,99.90
2022-10-16T18:26:19.842Z,99.90
2022-10-16T18:28:46.798Z,99.90
2022-10-16T18:31:15.803Z,99.90
2022-10-16T18:33:51.394Z,99.90
2022-10-16T18:36:21.418Z,99.90
2022-10-16T18:38:49.123Z,99.90
2022-10-16T18:41:16.397Z,99.90
2022-10-16T18:43:43.292Z,99.90
2022-10-16T18:46:16.125Z,99.90
2022-10-16T18:48:43.365Z,99.90
2022-10-16T18:51:25.091Z,99.90
2022-10-16T18:53:54.322Z,99.90
2022-10-16T18:56:23.395Z,99.90
2022-10-16T18:58:53.535Z,99.90
2022-10-16T19:01:24.736Z,99.90
2022-10-16T19:04:05.521Z,99.90
2022-10-16T19:06:38.189Z,99.90
2022-10-16T19:09:06.394Z,99.90
2022-10-16T19:11:35.788Z,99.90
2022-10-16T19:14:07.593Z,99.90
2022-10-16T19:16:36.319Z,99.90
2022-10-16T19:19:06.539Z,99.90
2022-10-16T19:21:36.951Z,99.90
2022-10-16T19:24:04.336Z,99.90
2022-10-16T19:26:32.317Z,99.90
2022-10-16T19:29:02.308Z,99.90
2022-10-16T19:31:31.524Z,99.90
2022-10-16T19:34:00.171Z,99.90
2022-10-16T19:36:33.463Z,99.90
2022-10-16T19:41:52.289Z,99.90
2022-10-16T19:44:19.557Z,99.90
2022-10-16T19:46:48.430Z,99.90
2022-10-16T19:49:22.038Z,99.90
2022-10-16T19:51:49.999Z,99.90
2022-10-16T19:54:16.936Z,99.90
2022-10-16T19:56:44.100Z,99.90
2022-10-16T19:59:13.499Z,99.90
2022-10-16T20:01:40.455Z,99.90
2022-10-16T20:04:07.292Z,99.90
2022-10-16T20:06:34.074Z,99.90
2022-10-16T20:09:00.886Z,99.90
2022-10-16T20:11:31.114Z,99.90
2022-10-16T20:13:57.892Z,99.90
2022-10-16T20:16:25.548Z,99.90
2022-10-16T20:18:53.174Z,99.90
2022-10-16T20:21:31.134Z,99.90
2022-10-16T20:24:00.373Z,99.90
2022-10-16T20:26:27.219Z,99.90
2022-10-16T20:28:54.939Z,99.90
2022-10-16T20:31:24.753Z,99.90
2022-10-16T20:33:53.183Z,99.90
2022-10-16T20:36:21.412Z,99.90
2022-10-16T20:38:48.483Z,99.90
2022-10-16T20:41:16.066Z,99.90
2022-10-16T20:43:45.955Z,99.90
2022-10-16T20:46:14.686Z,99.90
2022-10-16T20:48:46.738Z,99.90
2022-10-16T20:51:16.659Z,99.90
2022-10-16T20:53:45.385Z,99.90
2022-10-16T20:56:13.102Z,99.90
2022-10-16T20:58:41.111Z,99.90
2022-10-16T21:01:17.065Z,99.90
2022-10-16T21:03:48.941Z,99.90
2022-10-16T21:06:15.660Z,99.90
2022-10-16T21:08:43.453Z,99.90
2022-10-16T21:11:19.057Z,99.90
2022-10-16T21:13:46.524Z,99.90
2022-10-16T21:16:14.438Z,99.90
2022-10-16T21:18:44.586Z,99.90
2022-10-16T21:21:20.660Z,99.90
2022-10-16T21:23:49.143Z,99.90
2022-10-16T21:26:16.699Z,99.90
2022-10-16T21:28:43.549Z,99.90
2022-10-16T21:31:15.773Z,99.90
2022-10-16T21:33:42.874Z,99.90
2022-10-16T21:36:19.333Z,99.90
2022-10-16T21:41:23.152Z,99.90
2022-10-16T21:43:51.618Z,99.90
2022-10-16T21:46:20.364Z,99.90
2022-10-16T21:48:47.635Z,99.90
2022-10-16T21:51:15.416Z,99.90
2022-10-16T21:53:42.376Z,99.90
2022-10-16T21:56:17.322Z,99.90
2022-10-16T21:58:44.997Z,99.90
2022-10-16T22:01:15.149Z,99.90
2022-10-16T22:03:42.648Z,99.90
2022-10-16T22:06:10.795Z,99.90
2022-10-16T22:08:38.826Z,99.90
2022-10-16T22:11:10.898Z,99.90
2022-10-16T22:13:38.381Z,99.90
2022-10-16T22:16:05.741Z,99.90
2022-10-16T22:18:33.255Z,99.90
2022-10-16T22:21:00.376Z,99.90
2022-10-16T22:23:27.572Z,99.90
2022-10-16T22:26:03.386Z,99.90
2022-10-16T22:28:30.729Z,99.90
2022-10-16T22:31:02.345Z,99.90
2022-10-16T22:33:29.421Z,99.90
2022-10-16T22:35:56.357Z,99.90
2022-10-16T22:38:24.397Z,99.90
2022-10-16T22:40:51.231Z,99.90
2022-10-16T22:43:18.134Z,99.90
2022-10-16T22:45:45.034Z,99.90
2022-10-16T22:48:11.925Z,99.90
2022-10-16T22:50:38.801Z,99.90
2022-10-16T22:53:05.791Z,99.90
2022-10-16T22:55:32.701Z,99.90
2022-10-16T22:57:59.508Z,99.90
2022-10-16T23:00:26.298Z,99.90
2022-10-16T23:02:53.241Z,99.90
2022-10-16T23:05:20.120Z,99.90
2022-10-16T23:07:47.189Z,99.90
2022-10-16T23:10:14.235Z,99.90
2022-10-16T23:12:41.198Z,99.90
2022-10-16T23:15:08.497Z,99.90
2022-10-16T23:17:36.691Z,99.90
2022-10-16T23:20:05.163Z,99.90
2022-10-16T23:22:32.617Z,99.90
2022-10-16T23:25:00.535Z,99.90
2022-10-16T23:27:29.059Z,99.90
2022-10-16T23:29:57.305Z,99.90
2022-10-16T23:32:28.042Z,99.90
